Hovedside
METAR-TAF:

METAR-TAF

Lufthavner :

London City lufthavn

London, England

breddegrad: 51-30N, lengdegrad: 000-03E, høyde over havet: 5 m

Gjeldene værobservasjon

Denne rapporten ble laget for 34 minutter siden, klokken 06:50 UTC
Vind 13 kt fra Vest-sørvest
Temperatur 17°C
Luftfuktighet 72%
Trykk 1018 hPa
Sikt 10 km eller mer
Brutte skyer i en høyde av 1800 ft

METAR: EGLC 180650Z AUTO 24013KT 9999 BKN018 17/12 Q1018

Tid: 08:24 (07:24 UTC)

Varsel

Denne rapporten ble laget for 2 timer og 20 minutter siden, klokken 05:04 UTC
Varsel gyldig fra 18. klokken 06 UTC til 18. klokken 15 UTC
Vind 12 kt fra Vest
Sikt 10 km eller mer
Spredte skyer i en høyde av 1400 ft
Brutte skyer i en høyde av 3000 ft
Sannsynlighet 30% :
Midlertidig
fra 18. klokken 06 UTC til 18. klokken 08 UTC
Brutte skyer i en høyde av 1400 ft

TAF: EGLC 180504Z 1806/1815 26012KT 9999 SCT014 BKN030 PROB30 TEMPO 1806/1808 BKN014

Værobservasjoner og værvarsel for over 4000 flyplasser (METAR- og TAF-rapporter).

Tilgjengelige stasjoner er representert av de røde og gule prikkene på kartet.

Hold musepekeren over prikken for å se navnet på stasjonen.

Klikk så for å se værobservasjoner og -varsler.

For å forandre kartet kan du klikke på den grønne knappen med svart kryss for å zoome inn, på den grønne knappen med strek for å zoome ut, eller på de grønne pilene for å se tilstøtende kart.


METAR-TAF: